Cedar Point, Kansas
Current Conditions -  °F | °C
As of 4:15 AM on Tuesday 27 Jan 2015 (Local Time) from KEWK Reporting Station
Clear Clear  
Wind Chill:   Ceiling: Unl
Heat Index:   Visibility: 10mi
Dew Point: -1°   Wind: 7mph
Humidity: 50%   Direction: 20°NNE
Pressure: 30.11"   Gusts: NA
Location:  38.26°N, 96.82°W
Report Text: KEWK 271015Z AUTO 02006KT 10SM CLR 09/M01 A3011 RMK AO1
Loading
Personal Weather Stations






























Interactive Weather Map New forecast layout! Learn more

10-Day Weather Forecast

Advertisements
Track Severe Weather on mobile